sensor_id;sensor_type;location;lat;lon;timestamp;P1;durP1;ratioP1;P2;durP2;ratioP2
77451;SDS011;66537;52.370;4.832;2023-01-16T00:01:40;9.93;;;5.13;;
77451;SDS011;66537;52.370;4.832;2023-01-16T00:04:06;9.95;;;5.57;;
77451;SDS011;66537;52.370;4.832;2023-01-16T00:06:31;8.63;;;5.22;;
77451;SDS011;66537;52.370;4.832;2023-01-16T00:08:56;10.13;;;5.87;;
77451;SDS011;66537;52.370;4.832;2023-01-16T00:11:22;11.07;;;6.40;;
77451;SDS011;66537;52.370;4.832;2023-01-16T00:13:47;10.07;;;6.35;;
77451;SDS011;66537;52.370;4.832;2023-01-16T00:16:12;12.48;;;7.18;;
77451;SDS011;66537;52.370;4.832;2023-01-16T00:18:38;9.80;;;5.07;;
77451;SDS011;66537;52.370;4.832;2023-01-16T00:21:03;12.43;;;7.47;;
77451;SDS011;66537;52.370;4.832;2023-01-16T00:23:29;12.18;;;7.13;;
77451;SDS011;66537;52.370;4.832;2023-01-16T00:25:54;12.82;;;7.22;;
77451;SDS011;66537;52.370;4.832;2023-01-16T00:28:20;10.27;;;6.07;;
77451;SDS011;66537;52.370;4.832;2023-01-16T00:30:45;10.25;;;6.65;;
77451;SDS011;66537;52.370;4.832;2023-01-16T00:33:11;11.45;;;7.00;;
77451;SDS011;66537;52.370;4.832;2023-01-16T00:35:36;9.27;;;6.18;;
77451;SDS011;66537;52.370;4.832;2023-01-16T00:38:02;12.05;;;6.85;;
77451;SDS011;66537;52.370;4.832;2023-01-16T00:40:28;35.00;;;16.13;;
77451;SDS011;66537;52.370;4.832;2023-01-16T00:42:53;13.68;;;7.50;;
77451;SDS011;66537;52.370;4.832;2023-01-16T00:45:18;10.73;;;6.47;;
77451;SDS011;66537;52.370;4.832;2023-01-16T00:47:44;11.05;;;6.00;;
77451;SDS011;66537;52.370;4.832;2023-01-16T00:50:09;11.27;;;6.20;;
77451;SDS011;66537;52.370;4.832;2023-01-16T00:52:35;11.55;;;7.25;;
77451;SDS011;66537;52.370;4.832;2023-01-16T00:55:01;11.82;;;6.70;;
77451;SDS011;66537;52.370;4.832;2023-01-16T00:57:26;12.43;;;6.70;;
77451;SDS011;66537;52.370;4.832;2023-01-16T00:59:51;10.57;;;6.70;;
77451;SDS011;66537;52.370;4.832;2023-01-16T01:02:17;12.27;;;6.90;;
77451;SDS011;66537;52.370;4.832;2023-01-16T01:04:42;13.27;;;7.70;;
77451;SDS011;66537;52.370;4.832;2023-01-16T01:07:08;12.68;;;7.13;;
77451;SDS011;66537;52.370;4.832;2023-01-16T01:09:33;12.30;;;7.07;;
77451;SDS011;66537;52.370;4.832;2023-01-16T01:11:59;13.43;;;7.28;;
77451;SDS011;66537;52.370;4.832;2023-01-16T01:14:25;13.38;;;7.40;;
77451;SDS011;66537;52.370;4.832;2023-01-16T01:16:51;13.15;;;7.13;;
77451;SDS011;66537;52.370;4.832;2023-01-16T01:19:17;12.63;;;6.28;;
77451;SDS011;66537;52.370;4.832;2023-01-16T01:21:42;13.88;;;8.07;;
77451;SDS011;66537;52.370;4.832;2023-01-16T01:24:08;12.40;;;7.03;;
77451;SDS011;66537;52.370;4.832;2023-01-16T01:26:33;11.88;;;7.47;;
77451;SDS011;66537;52.370;4.832;2023-01-16T01:28:59;14.02;;;8.45;;
77451;SDS011;66537;52.370;4.832;2023-01-16T01:31:24;14.67;;;8.30;;
77451;SDS011;66537;52.370;4.832;2023-01-16T01:33:50;15.63;;;6.65;;
77451;SDS011;66537;52.370;4.832;2023-01-16T01:36:15;13.10;;;7.33;;
77451;SDS011;66537;52.370;4.832;2023-01-16T01:38:40;10.77;;;6.57;;
77451;SDS011;66537;52.370;4.832;2023-01-16T01:41:06;13.35;;;6.97;;
77451;SDS011;66537;52.370;4.832;2023-01-16T01:43:42;11.82;;;6.03;;
77451;SDS011;66537;52.370;4.832;2023-01-16T01:46:10;12.20;;;4.93;;
77451;SDS011;66537;52.370;4.832;2023-01-16T01:48:43;10.55;;;5.30;;
77451;SDS011;66537;52.370;4.832;2023-01-16T01:51:12;10.63;;;5.47;;
77451;SDS011;66537;52.370;4.832;2023-01-16T01:53:46;9.90;;;4.70;;
77451;SDS011;66537;52.370;4.832;2023-01-16T01:56:25;10.65;;;4.45;;
77451;SDS011;66537;52.370;4.832;2023-01-16T01:58:56;12.48;;;4.07;;
77451;SDS011;66537;52.370;4.832;2023-01-16T02:01:26;9.30;;;4.75;;
77451;SDS011;66537;52.370;4.832;2023-01-16T02:04:03;7.72;;;3.67;;
77451;SDS011;66537;52.370;4.832;2023-01-16T02:06:41;12.02;;;4.63;;
77451;SDS011;66537;52.370;4.832;2023-01-16T02:09:10;8.63;;;4.88;;
77451;SDS011;66537;52.370;4.832;2023-01-16T02:11:53;13.65;;;5.65;;
77451;SDS011;66537;52.370;4.832;2023-01-16T02:14:20;12.93;;;5.13;;
77451;SDS011;66537;52.370;4.832;2023-01-16T02:16:48;15.38;;;5.50;;
77451;SDS011;66537;52.370;4.832;2023-01-16T02:19:42;16.27;;;5.07;;
77451;SDS011;66537;52.370;4.832;2023-01-16T02:22:58;14.65;;;6.57;;
77451;SDS011;66537;52.370;4.832;2023-01-16T02:33:43;11.98;;;6.60;;
77451;SDS011;66537;52.370;4.832;2023-01-16T02:39:07;15.30;;;7.15;;
77451;SDS011;66537;52.370;4.832;2023-01-16T02:44:23;12.32;;;7.38;;
77451;SDS011;66537;52.370;4.832;2023-01-16T02:52:59;14.20;;;8.05;;
77451;SDS011;66537;52.370;4.832;2023-01-16T02:55:39;16.77;;;6.70;;
77451;SDS011;66537;52.370;4.832;2023-01-16T02:58:10;16.27;;;7.75;;
77451;SDS011;66537;52.370;4.832;2023-01-16T03:00:42;13.57;;;7.13;;
77451;SDS011;66537;52.370;4.832;2023-01-16T03:09:03;13.75;;;6.78;;
77451;SDS011;66537;52.370;4.832;2023-01-16T03:14:28;12.00;;;5.93;;
77451;SDS011;66537;52.370;4.832;2023-01-16T03:19:42;12.68;;;5.45;;
77451;SDS011;66537;52.370;4.832;2023-01-16T03:22:21;10.07;;;5.15;;
77451;SDS011;66537;52.370;4.832;2023-01-16T03:33:05;12.23;;;4.78;;
77451;SDS011;66537;52.370;4.832;2023-01-16T03:35:43;11.93;;;5.90;;
77451;SDS011;66537;52.370;4.832;2023-01-16T03:38:16;14.07;;;7.95;;
77451;SDS011;66537;52.370;4.832;2023-01-16T03:40:46;10.77;;;5.93;;
77451;SDS011;66537;52.370;4.832;2023-01-16T03:43:15;13.15;;;6.45;;
77451;SDS011;66537;52.370;4.832;2023-01-16T03:45:52;15.55;;;6.80;;
77451;SDS011;66537;52.370;4.832;2023-01-16T03:50:59;13.98;;;6.40;;
77451;SDS011;66537;52.370;4.832;2023-01-16T03:53:30;13.40;;;6.40;;
77451;SDS011;66537;52.370;4.832;2023-01-16T03:58:52;15.13;;;6.22;;
77451;SDS011;66537;52.370;4.832;2023-01-16T04:04:14;12.55;;;6.30;;
77451;SDS011;66537;52.370;4.832;2023-01-16T04:07:05;14.88;;;6.47;;
77451;SDS011;66537;52.370;4.832;2023-01-16T04:09:39;9.38;;;5.20;;
77451;SDS011;66537;52.370;4.832;2023-01-16T04:12:10;10.23;;;5.18;;
77451;SDS011;66537;52.370;4.832;2023-01-16T04:14:39;11.30;;;4.80;;
77451;SDS011;66537;52.370;4.832;2023-01-16T04:17:06;13.05;;;5.28;;
77451;SDS011;66537;52.370;4.832;2023-01-16T04:19:33;13.13;;;4.10;;
77451;SDS011;66537;52.370;4.832;2023-01-16T04:21:59;11.70;;;4.70;;
77451;SDS011;66537;52.370;4.832;2023-01-16T04:24:30;9.73;;;4.13;;
77451;SDS011;66537;52.370;4.832;2023-01-16T04:26:56;10.93;;;3.97;;
77451;SDS011;66537;52.370;4.832;2023-01-16T04:29:22;10.82;;;4.20;;
77451;SDS011;66537;52.370;4.832;2023-01-16T04:31:47;10.65;;;4.05;;
77451;SDS011;66537;52.370;4.832;2023-01-16T04:34:13;8.03;;;3.87;;
77451;SDS011;66537;52.370;4.832;2023-01-16T04:36:38;10.02;;;3.78;;
77451;SDS011;66537;52.370;4.832;2023-01-16T04:39:03;7.95;;;3.10;;
77451;SDS011;66537;52.370;4.832;2023-01-16T04:41:29;10.40;;;3.43;;
77451;SDS011;66537;52.370;4.832;2023-01-16T04:44:04;9.05;;;2.67;;
77451;SDS011;66537;52.370;4.832;2023-01-16T04:46:32;7.28;;;2.00;;
77451;SDS011;66537;52.370;4.832;2023-01-16T04:48:58;11.50;;;2.92;;
77451;SDS011;66537;52.370;4.832;2023-01-16T04:51:23;9.07;;;2.90;;
77451;SDS011;66537;52.370;4.832;2023-01-16T04:53:49;6.68;;;2.25;;
77451;SDS011;66537;52.370;4.832;2023-01-16T04:56:15;8.32;;;2.47;;
77451;SDS011;66537;52.370;4.832;2023-01-16T04:58:41;6.27;;;1.97;;
77451;SDS011;66537;52.370;4.832;2023-01-16T05:01:06;6.57;;;1.63;;
77451;SDS011;66537;52.370;4.832;2023-01-16T05:03:31;5.85;;;1.60;;
77451;SDS011;66537;52.370;4.832;2023-01-16T05:05:57;6.70;;;2.10;;
77451;SDS011;66537;52.370;4.832;2023-01-16T05:08:22;6.13;;;1.38;;
77451;SDS011;66537;52.370;4.832;2023-01-16T05:10:52;6.05;;;0.90;;
77451;SDS011;66537;52.370;4.832;2023-01-16T05:13:18;6.22;;;1.73;;
77451;SDS011;66537;52.370;4.832;2023-01-16T05:15:43;4.30;;;0.90;;
77451;SDS011;66537;52.370;4.832;2023-01-16T05:18:09;8.70;;;1.17;;
77451;SDS011;66537;52.370;4.832;2023-01-16T05:20:36;9.80;;;1.40;;
77451;SDS011;66537;52.370;4.832;2023-01-16T05:23:02;5.82;;;1.73;;
77451;SDS011;66537;52.370;4.832;2023-01-16T05:25:28;5.55;;;1.00;;
77451;SDS011;66537;52.370;4.832;2023-01-16T05:27:53;3.60;;;1.08;;
77451;SDS011;66537;52.370;4.832;2023-01-16T05:30:19;3.93;;;1.20;;
77451;SDS011;66537;52.370;4.832;2023-01-16T05:32:44;7.72;;;1.17;;
77451;SDS011;66537;52.370;4.832;2023-01-16T05:35:10;6.93;;;1.10;;
77451;SDS011;66537;52.370;4.832;2023-01-16T05:37:36;5.43;;;1.05;;
77451;SDS011;66537;52.370;4.832;2023-01-16T05:40:01;7.97;;;1.42;;
77451;SDS011;66537;52.370;4.832;2023-01-16T05:42:27;6.05;;;1.05;;
77451;SDS011;66537;52.370;4.832;2023-01-16T05:44:52;6.33;;;1.70;;
77451;SDS011;66537;52.370;4.832;2023-01-16T05:47:18;5.40;;;1.30;;
77451;SDS011;66537;52.370;4.832;2023-01-16T05:49:45;5.65;;;1.23;;
77451;SDS011;66537;52.370;4.832;2023-01-16T05:52:10;6.95;;;1.35;;
77451;SDS011;66537;52.370;4.832;2023-01-16T05:54:36;7.22;;;1.05;;
77451;SDS011;66537;52.370;4.832;2023-01-16T05:57:01;5.70;;;1.27;;
77451;SDS011;66537;52.370;4.832;2023-01-16T05:59:27;7.03;;;1.20;;
77451;SDS011;66537;52.370;4.832;2023-01-16T06:01:52;4.40;;;1.43;;
77451;SDS011;66537;52.370;4.832;2023-01-16T06:04:17;7.30;;;1.60;;
77451;SDS011;66537;52.370;4.832;2023-01-16T06:06:44;4.88;;;1.17;;
77451;SDS011;66537;52.370;4.832;2023-01-16T06:09:10;6.82;;;1.67;;
77451;SDS011;66537;52.370;4.832;2023-01-16T06:11:36;8.15;;;1.45;;
77451;SDS011;66537;52.370;4.832;2023-01-16T06:14:01;9.10;;;1.40;;
77451;SDS011;66537;52.370;4.832;2023-01-16T06:16:29;8.27;;;1.17;;
77451;SDS011;66537;52.370;4.832;2023-01-16T06:18:55;5.93;;;1.08;;
77451;SDS011;66537;52.370;4.832;2023-01-16T06:21:21;4.43;;;0.53;;
77451;SDS011;66537;52.370;4.832;2023-01-16T06:23:46;4.13;;;0.90;;
77451;SDS011;66537;52.370;4.832;2023-01-16T06:26:11;5.10;;;1.07;;
77451;SDS011;66537;52.370;4.832;2023-01-16T06:28:37;5.78;;;1.30;;
77451;SDS011;66537;52.370;4.832;2023-01-16T06:31:03;7.10;;;1.50;;
77451;SDS011;66537;52.370;4.832;2023-01-16T06:33:29;7.38;;;1.42;;
77451;SDS011;66537;52.370;4.832;2023-01-16T06:35:55;6.63;;;1.52;;
77451;SDS011;66537;52.370;4.832;2023-01-16T06:38:21;6.47;;;1.45;;
77451;SDS011;66537;52.370;4.832;2023-01-16T06:40:47;7.55;;;1.30;;
77451;SDS011;66537;52.370;4.832;2023-01-16T06:43:13;7.72;;;1.30;;
77451;SDS011;66537;52.370;4.832;2023-01-16T06:45:41;6.43;;;0.93;;
77451;SDS011;66537;52.370;4.832;2023-01-16T06:48:06;5.25;;;1.20;;
77451;SDS011;66537;52.370;4.832;2023-01-16T06:50:32;6.23;;;1.03;;
77451;SDS011;66537;52.370;4.832;2023-01-16T06:52:57;9.63;;;1.63;;
77451;SDS011;66537;52.370;4.832;2023-01-16T06:55:22;6.43;;;1.50;;
77451;SDS011;66537;52.370;4.832;2023-01-16T06:57:48;4.38;;;1.00;;
77451;SDS011;66537;52.370;4.832;2023-01-16T07:00:13;5.88;;;1.10;;
77451;SDS011;66537;52.370;4.832;2023-01-16T07:02:39;5.72;;;1.23;;
77451;SDS011;66537;52.370;4.832;2023-01-16T07:05:08;6.22;;;1.10;;
77451;SDS011;66537;52.370;4.832;2023-01-16T07:07:35;9.10;;;2.03;;
77451;SDS011;66537;52.370;4.832;2023-01-16T07:10:01;7.65;;;2.47;;
77451;SDS011;66537;52.370;4.832;2023-01-16T07:12:27;7.40;;;1.45;;
77451;SDS011;66537;52.370;4.832;2023-01-16T07:14:53;6.10;;;1.27;;
77451;SDS011;66537;52.370;4.832;2023-01-16T07:17:37;6.35;;;1.40;;
77451;SDS011;66537;52.370;4.832;2023-01-16T07:20:21;6.45;;;1.35;;
77451;SDS011;66537;52.370;4.832;2023-01-16T07:23:29;9.68;;;1.45;;
77451;SDS011;66537;52.370;4.832;2023-01-16T07:25:58;4.30;;;1.35;;
77451;SDS011;66537;52.370;4.832;2023-01-16T07:28:26;7.05;;;2.33;;
77451;SDS011;66537;52.370;4.832;2023-01-16T07:30:53;4.65;;;1.48;;
77451;SDS011;66537;52.370;4.832;2023-01-16T07:33:19;7.43;;;1.48;;
77451;SDS011;66537;52.370;4.832;2023-01-16T07:35:44;5.47;;;1.23;;
77451;SDS011;66537;52.370;4.832;2023-01-16T07:38:10;5.82;;;1.50;;
77451;SDS011;66537;52.370;4.832;2023-01-16T07:40:36;9.75;;;1.52;;
77451;SDS011;66537;52.370;4.832;2023-01-16T07:43:01;6.40;;;1.50;;
77451;SDS011;66537;52.370;4.832;2023-01-16T07:45:27;6.13;;;1.30;;
77451;SDS011;66537;52.370;4.832;2023-01-16T07:47:52;6.75;;;1.30;;
77451;SDS011;66537;52.370;4.832;2023-01-16T07:50:17;8.20;;;1.10;;
77451;SDS011;66537;52.370;4.832;2023-01-16T07:52:43;6.00;;;1.40;;
77451;SDS011;66537;52.370;4.832;2023-01-16T07:55:10;6.15;;;1.45;;
77451;SDS011;66537;52.370;4.832;2023-01-16T07:57:36;5.13;;;2.03;;
77451;SDS011;66537;52.370;4.832;2023-01-16T08:00:03;6.95;;;1.90;;
77451;SDS011;66537;52.370;4.832;2023-01-16T08:02:35;4.80;;;1.20;;
77451;SDS011;66537;52.370;4.832;2023-01-16T08:05:00;6.45;;;1.60;;
77451;SDS011;66537;52.370;4.832;2023-01-16T08:07:25;6.90;;;1.60;;
77451;SDS011;66537;52.370;4.832;2023-01-16T08:09:51;3.20;;;1.02;;
77451;SDS011;66537;52.370;4.832;2023-01-16T08:12:16;3.77;;;1.23;;
77451;SDS011;66537;52.370;4.832;2023-01-16T08:14:41;5.53;;;0.93;;
77451;SDS011;66537;52.370;4.832;2023-01-16T08:17:07;3.75;;;1.05;;
77451;SDS011;66537;52.370;4.832;2023-01-16T08:19:32;3.30;;;1.10;;
77451;SDS011;66537;52.370;4.832;2023-01-16T08:21:58;4.05;;;1.10;;
77451;SDS011;66537;52.370;4.832;2023-01-16T08:24:23;3.03;;;0.55;;
77451;SDS011;66537;52.370;4.832;2023-01-16T08:26:50;3.08;;;1.10;;
77451;SDS011;66537;52.370;4.832;2023-01-16T08:29:16;5.25;;;1.20;;
77451;SDS011;66537;52.370;4.832;2023-01-16T08:31:41;4.68;;;0.95;;
77451;SDS011;66537;52.370;4.832;2023-01-16T08:34:07;5.65;;;1.33;;
77451;SDS011;66537;52.370;4.832;2023-01-16T08:36:32;4.50;;;1.30;;
77451;SDS011;66537;52.370;4.832;2023-01-16T08:38:57;4.18;;;0.70;;
77451;SDS011;66537;52.370;4.832;2023-01-16T08:41:23;3.30;;;0.80;;
77451;SDS011;66537;52.370;4.832;2023-01-16T08:44:07;4.35;;;1.20;;
77451;SDS011;66537;52.370;4.832;2023-01-16T08:46:56;5.95;;;1.52;;
77451;SDS011;66537;52.370;4.832;2023-01-16T08:49:43;5.03;;;1.20;;
77451;SDS011;66537;52.370;4.832;2023-01-16T08:52:28;4.35;;;1.52;;
77451;SDS011;66537;52.370;4.832;2023-01-16T08:54:55;4.40;;;1.85;;
77451;SDS011;66537;52.370;4.832;2023-01-16T08:57:23;4.63;;;2.03;;
77451;SDS011;66537;52.370;4.832;2023-01-16T08:59:48;7.00;;;1.92;;
77451;SDS011;66537;52.370;4.832;2023-01-16T09:02:14;4.07;;;1.77;;
77451;SDS011;66537;52.370;4.832;2023-01-16T09:04:39;6.07;;;1.98;;
77451;SDS011;66537;52.370;4.832;2023-01-16T09:07:05;5.13;;;2.10;;
77451;SDS011;66537;52.370;4.832;2023-01-16T09:09:31;7.33;;;2.53;;
77451;SDS011;66537;52.370;4.832;2023-01-16T09:11:56;5.28;;;2.63;;
77451;SDS011;66537;52.370;4.832;2023-01-16T09:14:41;5.85;;;2.50;;
77451;SDS011;66537;52.370;4.832;2023-01-16T09:17:07;4.72;;;2.40;;
77451;SDS011;66537;52.370;4.832;2023-01-16T09:19:33;7.30;;;3.05;;
77451;SDS011;66537;52.370;4.832;2023-01-16T09:21:59;5.22;;;2.88;;
77451;SDS011;66537;52.370;4.832;2023-01-16T09:24:24;5.93;;;3.05;;
77451;SDS011;66537;52.370;4.832;2023-01-16T09:26:50;5.95;;;3.25;;
77451;SDS011;66537;52.370;4.832;2023-01-16T09:29:15;6.87;;;3.00;;
77451;SDS011;66537;52.370;4.832;2023-01-16T09:31:41;5.47;;;2.73;;
77451;SDS011;66537;52.370;4.832;2023-01-16T09:34:06;6.90;;;3.10;;
77451;SDS011;66537;52.370;4.832;2023-01-16T09:36:31;8.90;;;3.03;;
77451;SDS011;66537;52.370;4.832;2023-01-16T09:38:57;7.47;;;3.50;;
77451;SDS011;66537;52.370;4.832;2023-01-16T09:41:22;6.07;;;3.17;;
77451;SDS011;66537;52.370;4.832;2023-01-16T09:44:09;5.95;;;3.15;;
77451;SDS011;66537;52.370;4.832;2023-01-16T09:46:38;7.43;;;3.88;;
77451;SDS011;66537;52.370;4.832;2023-01-16T09:51:58;7.82;;;3.80;;
77451;SDS011;66537;52.370;4.832;2023-01-16T09:54:48;6.78;;;4.05;;
77451;SDS011;66537;52.370;4.832;2023-01-16T10:00:22;9.20;;;3.53;;
77451;SDS011;66537;52.370;4.832;2023-01-16T10:02:51;6.45;;;3.92;;
77451;SDS011;66537;52.370;4.832;2023-01-16T10:05:17;6.85;;;4.40;;
77451;SDS011;66537;52.370;4.832;2023-01-16T10:10:46;5.95;;;3.92;;
77451;SDS011;66537;52.370;4.832;2023-01-16T10:16:15;5.93;;;3.22;;
77451;SDS011;66537;52.370;4.832;2023-01-16T10:18:55;5.30;;;2.90;;
77451;SDS011;66537;52.370;4.832;2023-01-16T10:21:35;6.60;;;3.85;;
77451;SDS011;66537;52.370;4.832;2023-01-16T10:27:00;5.78;;;3.40;;
77451;SDS011;66537;52.370;4.832;2023-01-16T10:29:39;5.63;;;2.65;;
77451;SDS011;66537;52.370;4.832;2023-01-16T10:35:26;5.57;;;2.80;;
77451;SDS011;66537;52.370;4.832;2023-01-16T10:37:59;6.32;;;2.40;;
77451;SDS011;66537;52.370;4.832;2023-01-16T10:40:37;5.97;;;2.33;;
77451;SDS011;66537;52.370;4.832;2023-01-16T10:43:13;5.40;;;2.00;;
77451;SDS011;66537;52.370;4.832;2023-01-16T10:46:16;6.97;;;2.30;;
77451;SDS011;66537;52.370;4.832;2023-01-16T10:49:02;5.25;;;2.10;;
77451;SDS011;66537;52.370;4.832;2023-01-16T10:51:46;3.78;;;1.35;;
77451;SDS011;66537;52.370;4.832;2023-01-16T10:54:11;6.75;;;1.23;;
77451;SDS011;66537;52.370;4.832;2023-01-16T10:56:37;3.33;;;1.17;;
77451;SDS011;66537;52.370;4.832;2023-01-16T10:59:05;4.15;;;1.98;;
77451;SDS011;66537;52.370;4.832;2023-01-16T11:01:30;4.97;;;1.70;;
77451;SDS011;66537;52.370;4.832;2023-01-16T11:03:57;4.90;;;1.60;;
77451;SDS011;66537;52.370;4.832;2023-01-16T11:06:28;4.25;;;1.20;;
77451;SDS011;66537;52.370;4.832;2023-01-16T11:09:02;3.25;;;1.30;;
77451;SDS011;66537;52.370;4.832;2023-01-16T11:11:30;2.75;;;1.00;;
77451;SDS011;66537;52.370;4.832;2023-01-16T11:14:22;4.25;;;1.20;;
77451;SDS011;66537;52.370;4.832;2023-01-16T11:17:23;8.52;;;1.40;;
77451;SDS011;66537;52.370;4.832;2023-01-16T11:20:19;3.78;;;0.90;;
77451;SDS011;66537;52.370;4.832;2023-01-16T11:22:58;5.70;;;1.30;;
77451;SDS011;66537;52.370;4.832;2023-01-16T11:25:45;3.42;;;0.73;;
77451;SDS011;66537;52.370;4.832;2023-01-16T11:28:17;3.83;;;1.27;;
77451;SDS011;66537;52.370;4.832;2023-01-16T11:30:50;2.78;;;0.73;;
77451;SDS011;66537;52.370;4.832;2023-01-16T11:33:22;3.75;;;1.30;;
77451;SDS011;66537;52.370;4.832;2023-01-16T11:36:00;2.90;;;1.00;;
77451;SDS011;66537;52.370;4.832;2023-01-16T11:38:27;4.82;;;1.65;;
77451;SDS011;66537;52.370;4.832;2023-01-16T11:40:55;3.95;;;1.35;;
77451;SDS011;66537;52.370;4.832;2023-01-16T11:43:23;5.55;;;1.45;;
77451;SDS011;66537;52.370;4.832;2023-01-16T11:46:20;6.82;;;1.48;;
77451;SDS011;66537;52.370;4.832;2023-01-16T11:49:04;4.75;;;1.30;;
77451;SDS011;66537;52.370;4.832;2023-01-16T11:51:40;4.20;;;1.00;;
77451;SDS011;66537;52.370;4.832;2023-01-16T11:54:10;4.00;;;1.58;;
77451;SDS011;66537;52.370;4.832;2023-01-16T12:05:36;5.60;;;1.38;;
77451;SDS011;66537;52.370;4.832;2023-01-16T12:11:05;4.82;;;1.23;;
77451;SDS011;66537;52.370;4.832;2023-01-16T12:16:48;7.63;;;2.28;;
77451;SDS011;66537;52.370;4.832;2023-01-16T12:25:19;3.50;;;1.15;;
77451;SDS011;66537;52.370;4.832;2023-01-16T12:28:06;4.07;;;1.10;;
77451;SDS011;66537;52.370;4.832;2023-01-16T12:30:59;2.70;;;0.60;;
77451;SDS011;66537;52.370;4.832;2023-01-16T12:39:51;3.85;;;1.27;;
77451;SDS011;66537;52.370;4.832;2023-01-16T12:42:39;3.22;;;1.20;;
77451;SDS011;66537;52.370;4.832;2023-01-16T12:58:54;4.43;;;1.40;;
77451;SDS011;66537;52.370;4.832;2023-01-16T13:01:33;3.85;;;0.80;;
77451;SDS011;66537;52.370;4.832;2023-01-16T13:06:57;4.80;;;1.42;;
77451;SDS011;66537;52.370;4.832;2023-01-16T13:14:52;3.70;;;1.75;;
77451;SDS011;66537;52.370;4.832;2023-01-16T13:17:22;4.80;;;1.80;;
77451;SDS011;66537;52.370;4.832;2023-01-16T13:19:52;3.88;;;1.30;;
77451;SDS011;66537;52.370;4.832;2023-01-16T13:27:59;4.30;;;1.38;;
77451;SDS011;66537;52.370;4.832;2023-01-16T13:30:27;3.95;;;1.90;;
77451;SDS011;66537;52.370;4.832;2023-01-16T13:35:42;3.95;;;1.50;;
77451;SDS011;66537;52.370;4.832;2023-01-16T13:46:47;2.78;;;0.77;;
77451;SDS011;66537;52.370;4.832;2023-01-16T13:49:20;3.50;;;1.55;;
77451;SDS011;66537;52.370;4.832;2023-01-16T13:51:49;3.28;;;1.00;;
77451;SDS011;66537;52.370;4.832;2023-01-16T13:54:19;3.30;;;1.08;;
77451;SDS011;66537;52.370;4.832;2023-01-16T13:56:58;4.18;;;0.70;;
77451;SDS011;66537;52.370;4.832;2023-01-16T14:10:46;4.22;;;0.70;;
77451;SDS011;66537;52.370;4.832;2023-01-16T14:15:48;2.35;;;0.65;;
77451;SDS011;66537;52.370;4.832;2023-01-16T14:18:37;3.63;;;0.90;;
77451;SDS011;66537;52.370;4.832;2023-01-16T14:21:08;2.67;;;0.90;;
77451;SDS011;66537;52.370;4.832;2023-01-16T14:23:50;4.90;;;1.17;;
77451;SDS011;66537;52.370;4.832;2023-01-16T14:28:53;4.65;;;1.10;;
77451;SDS011;66537;52.370;4.832;2023-01-16T14:31:21;3.17;;;0.90;;
77451;SDS011;66537;52.370;4.832;2023-01-16T14:33:51;2.47;;;0.98;;
77451;SDS011;66537;52.370;4.832;2023-01-16T14:36:20;2.40;;;0.60;;
77451;SDS011;66537;52.370;4.832;2023-01-16T14:38:48;2.90;;;1.10;;
77451;SDS011;66537;52.370;4.832;2023-01-16T14:41:15;3.10;;;0.70;;
77451;SDS011;66537;52.370;4.832;2023-01-16T14:46:53;4.03;;;1.23;;
77451;SDS011;66537;52.370;4.832;2023-01-16T14:58:50;5.85;;;1.95;;
77451;SDS011;66537;52.370;4.832;2023-01-16T15:01:31;4.20;;;1.50;;
77451;SDS011;66537;52.370;4.832;2023-01-16T15:04:19;2.50;;;0.68;;
77451;SDS011;66537;52.370;4.832;2023-01-16T15:06:53;3.20;;;1.10;;
77451;SDS011;66537;52.370;4.832;2023-01-16T15:09:22;2.85;;;0.98;;
77451;SDS011;66537;52.370;4.832;2023-01-16T15:11:56;3.40;;;1.30;;
77451;SDS011;66537;52.370;4.832;2023-01-16T15:14:26;2.85;;;0.73;;
77451;SDS011;66537;52.370;4.832;2023-01-16T15:16:58;4.28;;;1.27;;
77451;SDS011;66537;52.370;4.832;2023-01-16T15:20:20;3.67;;;1.20;;
77451;SDS011;66537;52.370;4.832;2023-01-16T15:23:00;3.47;;;0.95;;
77451;SDS011;66537;52.370;4.832;2023-01-16T15:30:37;3.97;;;1.75;;
77451;SDS011;66537;52.370;4.832;2023-01-16T15:33:03;5.47;;;1.27;;
77451;SDS011;66537;52.370;4.832;2023-01-16T15:35:56;2.75;;;1.33;;
77451;SDS011;66537;52.370;4.832;2023-01-16T15:38:25;3.15;;;0.82;;
77451;SDS011;66537;52.370;4.832;2023-01-16T15:40:51;3.72;;;1.05;;
77451;SDS011;66537;52.370;4.832;2023-01-16T15:43:21;3.17;;;1.50;;
77451;SDS011;66537;52.370;4.832;2023-01-16T15:46:09;3.30;;;1.40;;
77451;SDS011;66537;52.370;4.832;2023-01-16T15:51:50;4.40;;;1.77;;
77451;SDS011;66537;52.370;4.832;2023-01-16T15:54:16;3.83;;;1.10;;
77451;SDS011;66537;52.370;4.832;2023-01-16T15:56:43;3.30;;;1.45;;
77451;SDS011;66537;52.370;4.832;2023-01-16T15:59:26;4.05;;;1.02;;
77451;SDS011;66537;52.370;4.832;2023-01-16T16:02:08;2.85;;;0.95;;
77451;SDS011;66537;52.370;4.832;2023-01-16T16:04:41;2.17;;;1.00;;
77451;SDS011;66537;52.370;4.832;2023-01-16T16:07:07;1.92;;;0.70;;
77451;SDS011;66537;52.370;4.832;2023-01-16T16:09:32;4.63;;;0.60;;
77451;SDS011;66537;52.370;4.832;2023-01-16T16:11:59;1.65;;;0.50;;
77451;SDS011;66537;52.370;4.832;2023-01-16T16:23:21;4.63;;;1.27;;
77451;SDS011;66537;52.370;4.832;2023-01-16T16:25:59;4.68;;;0.90;;
77451;SDS011;66537;52.370;4.832;2023-01-16T16:34:02;4.35;;;1.08;;
77451;SDS011;66537;52.370;4.832;2023-01-16T16:36:48;4.15;;;1.02;;
77451;SDS011;66537;52.370;4.832;2023-01-16T16:41:50;4.25;;;1.60;;
77451;SDS011;66537;52.370;4.832;2023-01-16T16:44:37;5.40;;;2.42;;
77451;SDS011;66537;52.370;4.832;2023-01-16T16:49:53;7.03;;;1.90;;
77451;SDS011;66537;52.370;4.832;2023-01-16T16:52:19;5.57;;;1.50;;
77451;SDS011;66537;52.370;4.832;2023-01-16T16:54:53;6.25;;;1.63;;
77451;SDS011;66537;52.370;4.832;2023-01-16T16:57:20;6.65;;;2.35;;
77451;SDS011;66537;52.370;4.832;2023-01-16T16:59:47;5.22;;;2.63;;
77451;SDS011;66537;52.370;4.832;2023-01-16T17:02:14;5.53;;;1.95;;
77451;SDS011;66537;52.370;4.832;2023-01-16T17:04:40;6.28;;;2.10;;
77451;SDS011;66537;52.370;4.832;2023-01-16T17:07:06;5.93;;;2.65;;
77451;SDS011;66537;52.370;4.832;2023-01-16T17:09:31;5.93;;;3.05;;
77451;SDS011;66537;52.370;4.832;2023-01-16T17:14:57;5.85;;;2.40;;
77451;SDS011;66537;52.370;4.832;2023-01-16T17:17:22;4.70;;;1.90;;
77451;SDS011;66537;52.370;4.832;2023-01-16T17:19:47;4.75;;;2.20;;
77451;SDS011;66537;52.370;4.832;2023-01-16T17:22:13;7.15;;;2.45;;
77451;SDS011;66537;52.370;4.832;2023-01-16T17:24:38;4.87;;;2.13;;
77451;SDS011;66537;52.370;4.832;2023-01-16T17:27:04;7.18;;;2.00;;
77451;SDS011;66537;52.370;4.832;2023-01-16T17:29:35;3.97;;;1.70;;
77451;SDS011;66537;52.370;4.832;2023-01-16T17:32:00;3.92;;;1.25;;
77451;SDS011;66537;52.370;4.832;2023-01-16T17:34:30;2.75;;;0.63;;
77451;SDS011;66537;52.370;4.832;2023-01-16T17:36:57;2.53;;;0.75;;
77451;SDS011;66537;52.370;4.832;2023-01-16T17:39:23;3.13;;;0.50;;
77451;SDS011;66537;52.370;4.832;2023-01-16T17:41:50;2.42;;;0.50;;
77451;SDS011;66537;52.370;4.832;2023-01-16T17:44:17;2.08;;;0.52;;
77451;SDS011;66537;52.370;4.832;2023-01-16T17:47:03;2.70;;;0.60;;
77451;SDS011;66537;52.370;4.832;2023-01-16T17:49:29;3.50;;;0.93;;
77451;SDS011;66537;52.370;4.832;2023-01-16T17:51:54;3.78;;;0.90;;
77451;SDS011;66537;52.370;4.832;2023-01-16T17:54:20;2.93;;;0.80;;
77451;SDS011;66537;52.370;4.832;2023-01-16T17:57:04;4.35;;;1.08;;
77451;SDS011;66537;52.370;4.832;2023-01-16T17:59:29;5.53;;;2.05;;
77451;SDS011;66537;52.370;4.832;2023-01-16T18:01:55;5.70;;;0.95;;
77451;SDS011;66537;52.370;4.832;2023-01-16T18:04:21;4.75;;;1.23;;
77451;SDS011;66537;52.370;4.832;2023-01-16T18:06:46;5.03;;;0.73;;
77451;SDS011;66537;52.370;4.832;2023-01-16T18:09:12;4.87;;;1.30;;
77451;SDS011;66537;52.370;4.832;2023-01-16T18:11:40;4.47;;;1.38;;
77451;SDS011;66537;52.370;4.832;2023-01-16T18:14:25;5.10;;;1.45;;
77451;SDS011;66537;52.370;4.832;2023-01-16T18:17:10;5.72;;;1.38;;